sensor_id;sensor_type;location;lat;lon;timestamp;P1;durP1;ratioP1;P2;durP2;ratioP2
23995;SDS011;12207;50.076;8.848;2022-07-10T00:00:56;217.20;;;10.43;;
23995;SDS011;12207;50.076;8.848;2022-07-10T00:03:23;243.23;;;11.70;;
23995;SDS011;12207;50.076;8.848;2022-07-10T00:05:49;204.15;;;9.65;;
23995;SDS011;12207;50.076;8.848;2022-07-10T00:08:16;237.73;;;11.45;;
23995;SDS011;12207;50.076;8.848;2022-07-10T00:10:43;275.52;;;13.73;;
23995;SDS011;12207;50.076;8.848;2022-07-10T00:13:09;244.70;;;12.05;;
23995;SDS011;12207;50.076;8.848;2022-07-10T00:15:36;228.45;;;11.18;;
23995;SDS011;12207;50.076;8.848;2022-07-10T00:18:03;240.13;;;11.77;;
23995;SDS011;12207;50.076;8.848;2022-07-10T00:20:29;264.40;;;13.38;;
23995;SDS011;12207;50.076;8.848;2022-07-10T00:22:57;167.27;;;8.15;;
23995;SDS011;12207;50.076;8.848;2022-07-10T00:25:23;175.52;;;8.60;;
23995;SDS011;12207;50.076;8.848;2022-07-10T00:27:50;186.77;;;9.15;;
23995;SDS011;12207;50.076;8.848;2022-07-10T00:30:17;246.52;;;12.05;;
23995;SDS011;12207;50.076;8.848;2022-07-10T00:32:43;227.65;;;11.15;;
23995;SDS011;12207;50.076;8.848;2022-07-10T00:35:10;232.52;;;11.35;;
23995;SDS011;12207;50.076;8.848;2022-07-10T00:37:37;259.30;;;12.63;;
23995;SDS011;12207;50.076;8.848;2022-07-10T00:40:04;233.75;;;11.23;;
23995;SDS011;12207;50.076;8.848;2022-07-10T00:42:31;246.57;;;12.15;;
23995;SDS011;12207;50.076;8.848;2022-07-10T00:44:58;222.30;;;10.77;;
23995;SDS011;12207;50.076;8.848;2022-07-10T00:47:24;186.20;;;9.00;;
23995;SDS011;12207;50.076;8.848;2022-07-10T00:49:51;220.95;;;10.73;;
23995;SDS011;12207;50.076;8.848;2022-07-10T00:52:18;238.20;;;11.45;;
23995;SDS011;12207;50.076;8.848;2022-07-10T00:54:46;263.90;;;12.73;;
23995;SDS011;12207;50.076;8.848;2022-07-10T00:57:16;248.85;;;12.27;;
23995;SDS011;12207;50.076;8.848;2022-07-10T00:59:44;265.67;;;13.07;;
23995;SDS011;12207;50.076;8.848;2022-07-10T01:02:11;241.60;;;11.95;;
23995;SDS011;12207;50.076;8.848;2022-07-10T01:04:39;253.00;;;12.65;;
23995;SDS011;12207;50.076;8.848;2022-07-10T01:07:06;292.80;;;14.50;;
23995;SDS011;12207;50.076;8.848;2022-07-10T01:09:33;272.73;;;13.60;;
23995;SDS011;12207;50.076;8.848;2022-07-10T01:12:00;183.63;;;9.07;;
23995;SDS011;12207;50.076;8.848;2022-07-10T01:14:29;201.18;;;9.73;;
23995;SDS011;12207;50.076;8.848;2022-07-10T01:16:57;204.48;;;10.02;;
23995;SDS011;12207;50.076;8.848;2022-07-10T01:19:24;220.55;;;10.57;;
23995;SDS011;12207;50.076;8.848;2022-07-10T01:21:51;205.95;;;9.88;;
23995;SDS011;12207;50.076;8.848;2022-07-10T01:24:18;192.60;;;9.32;;
23995;SDS011;12207;50.076;8.848;2022-07-10T01:26:45;411.83;;;20.67;;
23995;SDS011;12207;50.076;8.848;2022-07-10T01:29:11;265.10;;;13.10;;
23995;SDS011;12207;50.076;8.848;2022-07-10T01:31:38;250.93;;;12.13;;
23995;SDS011;12207;50.076;8.848;2022-07-10T01:34:06;272.48;;;13.35;;
23995;SDS011;12207;50.076;8.848;2022-07-10T01:36:37;429.95;;;21.58;;
23995;SDS011;12207;50.076;8.848;2022-07-10T01:39:04;260.45;;;12.55;;
23995;SDS011;12207;50.076;8.848;2022-07-10T01:41:31;190.40;;;9.20;;
23995;SDS011;12207;50.076;8.848;2022-07-10T01:43:59;206.32;;;9.95;;
23995;SDS011;12207;50.076;8.848;2022-07-10T01:46:25;385.90;;;18.80;;
23995;SDS011;12207;50.076;8.848;2022-07-10T01:48:52;203.00;;;9.80;;
23995;SDS011;12207;50.076;8.848;2022-07-10T01:51:19;200.60;;;9.43;;
23995;SDS011;12207;50.076;8.848;2022-07-10T01:53:46;214.18;;;10.05;;
23995;SDS011;12207;50.076;8.848;2022-07-10T01:56:14;345.88;;;16.92;;
23995;SDS011;12207;50.076;8.848;2022-07-10T01:58:41;257.63;;;12.40;;
23995;SDS011;12207;50.076;8.848;2022-07-10T02:01:08;268.55;;;12.93;;
23995;SDS011;12207;50.076;8.848;2022-07-10T02:03:35;264.90;;;12.65;;
23995;SDS011;12207;50.076;8.848;2022-07-10T02:06:21;417.00;;;20.48;;
23995;SDS011;12207;50.076;8.848;2022-07-10T02:08:48;175.20;;;8.23;;
23995;SDS011;12207;50.076;8.848;2022-07-10T02:11:15;230.07;;;10.85;;
23995;SDS011;12207;50.076;8.848;2022-07-10T02:13:42;227.95;;;10.75;;
23995;SDS011;12207;50.076;8.848;2022-07-10T02:16:09;315.17;;;15.20;;
23995;SDS011;12207;50.076;8.848;2022-07-10T02:18:36;285.15;;;13.73;;
23995;SDS011;12207;50.076;8.848;2022-07-10T02:21:04;224.98;;;10.55;;
23995;SDS011;12207;50.076;8.848;2022-07-10T02:23:31;255.70;;;12.30;;
23995;SDS011;12207;50.076;8.848;2022-07-10T02:25:58;201.10;;;9.55;;
23995;SDS011;12207;50.076;8.848;2022-07-10T02:28:24;194.93;;;9.25;;
23995;SDS011;12207;50.076;8.848;2022-07-10T02:30:51;213.10;;;10.13;;
23995;SDS011;12207;50.076;8.848;2022-07-10T02:33:18;333.23;;;16.40;;
23995;SDS011;12207;50.076;8.848;2022-07-10T02:35:44;233.27;;;11.02;;
23995;SDS011;12207;50.076;8.848;2022-07-10T02:38:11;270.83;;;13.00;;
23995;SDS011;12207;50.076;8.848;2022-07-10T02:40:38;271.40;;;12.90;;
23995;SDS011;12207;50.076;8.848;2022-07-10T02:43:04;269.98;;;12.90;;
23995;SDS011;12207;50.076;8.848;2022-07-10T02:45:31;252.77;;;12.05;;
23995;SDS011;12207;50.076;8.848;2022-07-10T02:47:58;192.95;;;9.13;;
23995;SDS011;12207;50.076;8.848;2022-07-10T02:50:24;232.18;;;11.05;;
23995;SDS011;12207;50.076;8.848;2022-07-10T02:52:51;197.55;;;9.30;;
23995;SDS011;12207;50.076;8.848;2022-07-10T02:55:18;207.63;;;9.90;;
23995;SDS011;12207;50.076;8.848;2022-07-10T02:57:45;250.70;;;11.75;;
23995;SDS011;12207;50.076;8.848;2022-07-10T03:00:11;313.98;;;15.13;;
23995;SDS011;12207;50.076;8.848;2022-07-10T03:02:38;279.15;;;13.18;;
23995;SDS011;12207;50.076;8.848;2022-07-10T03:05:05;251.98;;;11.98;;
23995;SDS011;12207;50.076;8.848;2022-07-10T03:07:32;203.32;;;9.57;;
23995;SDS011;12207;50.076;8.848;2022-07-10T03:09:59;227.43;;;10.90;;
23995;SDS011;12207;50.076;8.848;2022-07-10T03:12:25;209.93;;;9.98;;
23995;SDS011;12207;50.076;8.848;2022-07-10T03:14:52;185.10;;;8.75;;
23995;SDS011;12207;50.076;8.848;2022-07-10T03:17:19;243.25;;;11.63;;
23995;SDS011;12207;50.076;8.848;2022-07-10T03:19:45;241.38;;;11.40;;
23995;SDS011;12207;50.076;8.848;2022-07-10T03:22:12;293.60;;;14.23;;
23995;SDS011;12207;50.076;8.848;2022-07-10T03:24:39;262.65;;;12.60;;
23995;SDS011;12207;50.076;8.848;2022-07-10T03:27:06;226.48;;;10.50;;
23995;SDS011;12207;50.076;8.848;2022-07-10T03:29:33;244.48;;;11.63;;
23995;SDS011;12207;50.076;8.848;2022-07-10T03:31:59;188.57;;;9.00;;
23995;SDS011;12207;50.076;8.848;2022-07-10T03:34:26;185.40;;;8.70;;
23995;SDS011;12207;50.076;8.848;2022-07-10T03:36:53;231.05;;;11.23;;
23995;SDS011;12207;50.076;8.848;2022-07-10T03:39:21;203.15;;;9.70;;
23995;SDS011;12207;50.076;8.848;2022-07-10T03:41:47;208.02;;;9.88;;
23995;SDS011;12207;50.076;8.848;2022-07-10T03:44:14;236.38;;;11.52;;
23995;SDS011;12207;50.076;8.848;2022-07-10T03:46:41;445.63;;;22.25;;
23995;SDS011;12207;50.076;8.848;2022-07-10T03:49:07;279.63;;;13.50;;
23995;SDS011;12207;50.076;8.848;2022-07-10T03:51:34;282.23;;;14.13;;
23995;SDS011;12207;50.076;8.848;2022-07-10T03:54:01;236.65;;;11.57;;
23995;SDS011;12207;50.076;8.848;2022-07-10T03:56:27;389.45;;;19.13;;
23995;SDS011;12207;50.076;8.848;2022-07-10T03:59:13;256.88;;;12.55;;
23995;SDS011;12207;50.076;8.848;2022-07-10T04:01:39;258.42;;;12.55;;
23995;SDS011;12207;50.076;8.848;2022-07-10T04:04:06;261.40;;;12.77;;
23995;SDS011;12207;50.076;8.848;2022-07-10T04:06:33;396.95;;;19.58;;
23995;SDS011;12207;50.076;8.848;2022-07-10T04:09:00;211.80;;;10.18;;
23995;SDS011;12207;50.076;8.848;2022-07-10T04:11:26;178.63;;;8.57;;
23995;SDS011;12207;50.076;8.848;2022-07-10T04:13:53;193.82;;;9.77;;
23995;SDS011;12207;50.076;8.848;2022-07-10T04:16:20;389.95;;;20.38;;
23995;SDS011;12207;50.076;8.848;2022-07-10T04:18:46;240.07;;;12.57;;
23995;SDS011;12207;50.076;8.848;2022-07-10T04:21:13;271.33;;;13.90;;
23995;SDS011;12207;50.076;8.848;2022-07-10T04:23:40;287.30;;;14.35;;
23995;SDS011;12207;50.076;8.848;2022-07-10T04:26:07;259.73;;;12.95;;
23995;SDS011;12207;50.076;8.848;2022-07-10T04:28:34;217.85;;;10.65;;
23995;SDS011;12207;50.076;8.848;2022-07-10T04:31:00;224.95;;;10.90;;
23995;SDS011;12207;50.076;8.848;2022-07-10T04:33:27;170.90;;;8.15;;
23995;SDS011;12207;50.076;8.848;2022-07-10T04:35:54;189.48;;;9.30;;
23995;SDS011;12207;50.076;8.848;2022-07-10T04:38:21;244.50;;;11.85;;
23995;SDS011;12207;50.076;8.848;2022-07-10T04:40:47;229.45;;;11.10;;
23995;SDS011;12207;50.076;8.848;2022-07-10T04:43:14;250.27;;;12.05;;
23995;SDS011;12207;50.076;8.848;2022-07-10T04:45:41;273.50;;;13.00;;
23995;SDS011;12207;50.076;8.848;2022-07-10T04:48:07;252.43;;;12.07;;
23995;SDS011;12207;50.076;8.848;2022-07-10T04:50:34;273.20;;;13.30;;
23995;SDS011;12207;50.076;8.848;2022-07-10T04:53:01;251.82;;;11.95;;
23995;SDS011;12207;50.076;8.848;2022-07-10T04:55:28;222.32;;;10.70;;
23995;SDS011;12207;50.076;8.848;2022-07-10T04:57:54;171.20;;;8.00;;
23995;SDS011;12207;50.076;8.848;2022-07-10T05:00:21;219.63;;;10.38;;
23995;SDS011;12207;50.076;8.848;2022-07-10T05:02:48;231.77;;;10.85;;
23995;SDS011;12207;50.076;8.848;2022-07-10T05:05:15;251.95;;;11.95;;
23995;SDS011;12207;50.076;8.848;2022-07-10T05:07:41;292.35;;;14.07;;
23995;SDS011;12207;50.076;8.848;2022-07-10T05:10:08;238.57;;;11.35;;
23995;SDS011;12207;50.076;8.848;2022-07-10T05:12:35;261.08;;;12.52;;
23995;SDS011;12207;50.076;8.848;2022-07-10T05:15:02;268.33;;;12.90;;
23995;SDS011;12207;50.076;8.848;2022-07-10T05:17:29;215.70;;;10.30;;
23995;SDS011;12207;50.076;8.848;2022-07-10T05:19:57;203.07;;;9.90;;
23995;SDS011;12207;50.076;8.848;2022-07-10T05:22:24;219.18;;;10.98;;
23995;SDS011;12207;50.076;8.848;2022-07-10T05:24:51;206.55;;;10.30;;
23995;SDS011;12207;50.076;8.848;2022-07-10T05:27:18;232.48;;;12.27;;
23995;SDS011;12207;50.076;8.848;2022-07-10T05:29:46;268.77;;;15.80;;
23995;SDS011;12207;50.076;8.848;2022-07-10T05:32:13;273.30;;;17.02;;
23995;SDS011;12207;50.076;8.848;2022-07-10T05:34:40;324.80;;;20.25;;
23995;SDS011;12207;50.076;8.848;2022-07-10T05:37:07;304.33;;;22.15;;
23995;SDS011;12207;50.076;8.848;2022-07-10T05:39:33;222.70;;;12.55;;
23995;SDS011;12207;50.076;8.848;2022-07-10T05:42:00;211.05;;;10.75;;
23995;SDS011;12207;50.076;8.848;2022-07-10T05:44:27;189.40;;;9.68;;
23995;SDS011;12207;50.076;8.848;2022-07-10T05:46:54;260.05;;;13.07;;
23995;SDS011;12207;50.076;8.848;2022-07-10T05:49:20;213.88;;;10.57;;
23995;SDS011;12207;50.076;8.848;2022-07-10T05:51:47;243.23;;;11.90;;
23995;SDS011;12207;50.076;8.848;2022-07-10T05:54:14;273.30;;;13.63;;
23995;SDS011;12207;50.076;8.848;2022-07-10T05:56:41;462.92;;;22.63;;
23995;SDS011;12207;50.076;8.848;2022-07-10T05:59:07;292.20;;;14.63;;
23995;SDS011;12207;50.076;8.848;2022-07-10T06:01:34;233.13;;;11.48;;
23995;SDS011;12207;50.076;8.848;2022-07-10T06:04:01;230.50;;;11.65;;
23995;SDS011;12207;50.076;8.848;2022-07-10T06:06:29;434.92;;;21.60;;
23995;SDS011;12207;50.076;8.848;2022-07-10T06:08:55;202.20;;;10.18;;
23995;SDS011;12207;50.076;8.848;2022-07-10T06:11:22;191.13;;;9.52;;
23995;SDS011;12207;50.076;8.848;2022-07-10T06:13:49;240.57;;;12.13;;
23995;SDS011;12207;50.076;8.848;2022-07-10T06:16:16;398.77;;;19.95;;
23995;SDS011;12207;50.076;8.848;2022-07-10T06:18:42;260.05;;;12.93;;
23995;SDS011;12207;50.076;8.848;2022-07-10T06:21:09;232.63;;;11.73;;
23995;SDS011;12207;50.076;8.848;2022-07-10T06:23:36;273.73;;;13.50;;
23995;SDS011;12207;50.076;8.848;2022-07-10T06:26:02;213.05;;;10.45;;
23995;SDS011;12207;50.076;8.848;2022-07-10T06:28:29;186.02;;;9.27;;
23995;SDS011;12207;50.076;8.848;2022-07-10T06:30:56;221.70;;;11.32;;
23995;SDS011;12207;50.076;8.848;2022-07-10T06:33:22;233.00;;;11.70;;
23995;SDS011;12207;50.076;8.848;2022-07-10T06:35:49;222.80;;;11.27;;
23995;SDS011;12207;50.076;8.848;2022-07-10T06:38:16;278.08;;;14.57;;
23995;SDS011;12207;50.076;8.848;2022-07-10T06:40:43;314.42;;;16.73;;
23995;SDS011;12207;50.076;8.848;2022-07-10T06:43:12;254.52;;;17.10;;
23995;SDS011;12207;50.076;8.848;2022-07-10T06:45:39;263.80;;;17.05;;
23995;SDS011;12207;50.076;8.848;2022-07-10T06:48:06;276.83;;;16.02;;
23995;SDS011;12207;50.076;8.848;2022-07-10T06:50:33;269.92;;;16.35;;
23995;SDS011;12207;50.076;8.848;2022-07-10T06:53:00;244.65;;;14.32;;
23995;SDS011;12207;50.076;8.848;2022-07-10T06:55:28;199.82;;;11.25;;
23995;SDS011;12207;50.076;8.848;2022-07-10T06:57:55;217.93;;;11.93;;
23995;SDS011;12207;50.076;8.848;2022-07-10T07:00:22;252.52;;;15.57;;
23995;SDS011;12207;50.076;8.848;2022-07-10T07:02:48;211.30;;;12.07;;
23995;SDS011;12207;50.076;8.848;2022-07-10T07:05:15;251.88;;;13.45;;
23995;SDS011;12207;50.076;8.848;2022-07-10T07:07:42;309.95;;;16.30;;
23995;SDS011;12207;50.076;8.848;2022-07-10T07:10:09;293.63;;;15.13;;
23995;SDS011;12207;50.076;8.848;2022-07-10T07:12:36;214.77;;;11.10;;
23995;SDS011;12207;50.076;8.848;2022-07-10T07:15:04;275.42;;;14.45;;
23995;SDS011;12207;50.076;8.848;2022-07-10T07:17:31;237.50;;;12.15;;
23995;SDS011;12207;50.076;8.848;2022-07-10T07:20:12;248.57;;;13.25;;
23995;SDS011;12207;50.076;8.848;2022-07-10T07:22:57;166.63;;;9.23;;
23995;SDS011;12207;50.076;8.848;2022-07-10T07:25:36;233.32;;;13.43;;
23995;SDS011;12207;50.076;8.848;2022-07-10T07:28:06;232.90;;;12.75;;
23995;SDS011;12207;50.076;8.848;2022-07-10T07:30:33;284.80;;;17.27;;
23995;SDS011;12207;50.076;8.848;2022-07-10T07:33:00;249.60;;;14.18;;
23995;SDS011;12207;50.076;8.848;2022-07-10T07:35:26;194.98;;;10.20;;
23995;SDS011;12207;50.076;8.848;2022-07-10T07:37:53;205.00;;;10.93;;
23995;SDS011;12207;50.076;8.848;2022-07-10T07:40:21;242.38;;;13.43;;
23995;SDS011;12207;50.076;8.848;2022-07-10T07:42:49;222.30;;;11.82;;
23995;SDS011;12207;50.076;8.848;2022-07-10T07:45:17;282.92;;;15.00;;
23995;SDS011;12207;50.076;8.848;2022-07-10T07:50:12;243.48;;;12.63;;
23995;SDS011;12207;50.076;8.848;2022-07-10T07:52:44;275.10;;;14.82;;
23995;SDS011;12207;50.076;8.848;2022-07-10T07:55:12;291.30;;;15.90;;
23995;SDS011;12207;50.076;8.848;2022-07-10T07:57:40;273.73;;;14.23;;
23995;SDS011;12207;50.076;8.848;2022-07-10T08:00:08;251.20;;;13.15;;
23995;SDS011;12207;50.076;8.848;2022-07-10T08:02:36;282.75;;;14.93;;
23995;SDS011;12207;50.076;8.848;2022-07-10T08:05:03;272.33;;;14.40;;
23995;SDS011;12207;50.076;8.848;2022-07-10T08:07:37;243.90;;;12.82;;
23995;SDS011;12207;50.076;8.848;2022-07-10T08:10:16;278.88;;;14.13;;
23995;SDS011;12207;50.076;8.848;2022-07-10T08:12:45;271.73;;;13.65;;
23995;SDS011;12207;50.076;8.848;2022-07-10T08:15:15;353.42;;;17.75;;
23995;SDS011;12207;50.076;8.848;2022-07-10T08:17:42;273.42;;;13.70;;
23995;SDS011;12207;50.076;8.848;2022-07-10T08:20:12;280.65;;;14.30;;
23995;SDS011;12207;50.076;8.848;2022-07-10T08:22:39;291.52;;;14.48;;
23995;SDS011;12207;50.076;8.848;2022-07-10T08:25:07;279.27;;;14.30;;
23995;SDS011;12207;50.076;8.848;2022-07-10T08:27:35;303.95;;;15.20;;
23995;SDS011;12207;50.076;8.848;2022-07-10T08:30:02;252.10;;;12.63;;
23995;SDS011;12207;50.076;8.848;2022-07-10T08:32:30;226.95;;;11.35;;
23995;SDS011;12207;50.076;8.848;2022-07-10T08:34:57;233.40;;;11.73;;
23995;SDS011;12207;50.076;8.848;2022-07-10T08:37:26;231.93;;;11.70;;
23995;SDS011;12207;50.076;8.848;2022-07-10T08:39:53;212.25;;;10.88;;
23995;SDS011;12207;50.076;8.848;2022-07-10T08:42:20;230.70;;;11.98;;
23995;SDS011;12207;50.076;8.848;2022-07-10T08:44:48;278.90;;;13.98;;
23995;SDS011;12207;50.076;8.848;2022-07-10T08:47:18;272.45;;;13.82;;
23995;SDS011;12207;50.076;8.848;2022-07-10T08:49:47;306.33;;;15.77;;
23995;SDS011;12207;50.076;8.848;2022-07-10T08:52:28;272.58;;;14.07;;
23995;SDS011;12207;50.076;8.848;2022-07-10T08:54:59;259.70;;;13.52;;
23995;SDS011;12207;50.076;8.848;2022-07-10T08:57:26;224.30;;;11.98;;
23995;SDS011;12207;50.076;8.848;2022-07-10T08:59:55;234.40;;;12.40;;
23995;SDS011;12207;50.076;8.848;2022-07-10T09:02:21;258.92;;;13.43;;
23995;SDS011;12207;50.076;8.848;2022-07-10T09:04:48;245.38;;;12.60;;
23995;SDS011;12207;50.076;8.848;2022-07-10T09:07:15;285.80;;;14.85;;
23995;SDS011;12207;50.076;8.848;2022-07-10T09:09:52;298.15;;;15.82;;
23995;SDS011;12207;50.076;8.848;2022-07-10T09:12:23;225.95;;;12.32;;
23995;SDS011;12207;50.076;8.848;2022-07-10T09:14:50;202.93;;;10.65;;
23995;SDS011;12207;50.076;8.848;2022-07-10T09:17:18;266.65;;;14.07;;
23995;SDS011;12207;50.076;8.848;2022-07-10T09:19:44;282.42;;;14.90;;
23995;SDS011;12207;50.076;8.848;2022-07-10T09:22:12;269.42;;;14.10;;
23995;SDS011;12207;50.076;8.848;2022-07-10T09:24:41;275.33;;;14.45;;
23995;SDS011;12207;50.076;8.848;2022-07-10T09:27:10;329.35;;;17.40;;
23995;SDS011;12207;50.076;8.848;2022-07-10T09:29:45;301.00;;;16.25;;
23995;SDS011;12207;50.076;8.848;2022-07-10T09:32:13;268.58;;;14.15;;
23995;SDS011;12207;50.076;8.848;2022-07-10T09:34:46;297.02;;;15.38;;
23995;SDS011;12207;50.076;8.848;2022-07-10T09:39:52;240.00;;;12.70;;
23995;SDS011;12207;50.076;8.848;2022-07-10T09:42:32;285.70;;;15.13;;
23995;SDS011;12207;50.076;8.848;2022-07-10T09:47:37;311.92;;;17.73;;
23995;SDS011;12207;50.076;8.848;2022-07-10T09:50:08;269.75;;;15.25;;
23995;SDS011;12207;50.076;8.848;2022-07-10T09:53:00;235.75;;;13.30;;
23995;SDS011;12207;50.076;8.848;2022-07-10T09:55:32;294.40;;;16.42;;
23995;SDS011;12207;50.076;8.848;2022-07-10T09:58:06;244.43;;;13.40;;
23995;SDS011;12207;50.076;8.848;2022-07-10T10:00:35;320.73;;;16.95;;
23995;SDS011;12207;50.076;8.848;2022-07-10T10:03:05;273.92;;;15.02;;
23995;SDS011;12207;50.076;8.848;2022-07-10T10:05:43;334.45;;;19.98;;
23995;SDS011;12207;50.076;8.848;2022-07-10T10:08:17;302.75;;;20.48;;
23995;SDS011;12207;50.076;8.848;2022-07-10T10:10:52;258.30;;;18.65;;
23995;SDS011;12207;50.076;8.848;2022-07-10T10:13:22;225.60;;;17.23;;
23995;SDS011;12207;50.076;8.848;2022-07-10T10:15:53;239.25;;;17.60;;
23995;SDS011;12207;50.076;8.848;2022-07-10T10:18:21;239.30;;;15.82;;
23995;SDS011;12207;50.076;8.848;2022-07-10T10:20:49;247.45;;;15.73;;
23995;SDS011;12207;50.076;8.848;2022-07-10T10:23:19;258.95;;;15.77;;
23995;SDS011;12207;50.076;8.848;2022-07-10T10:25:49;238.45;;;14.00;;
23995;SDS011;12207;50.076;8.848;2022-07-10T10:28:20;255.32;;;14.43;;
23995;SDS011;12207;50.076;8.848;2022-07-10T10:30:51;267.35;;;14.90;;
23995;SDS011;12207;50.076;8.848;2022-07-10T10:39:23;249.07;;;17.10;;
23995;SDS011;12207;50.076;8.848;2022-07-10T10:49:20;291.13;;;21.15;;
23995;SDS011;12207;50.076;8.848;2022-07-10T10:57:19;265.77;;;18.85;;
23995;SDS011;12207;50.076;8.848;2022-07-10T10:59:49;268.73;;;19.10;;
23995;SDS011;12207;50.076;8.848;2022-07-10T11:04:49;220.25;;;19.45;;
23995;SDS011;12207;50.076;8.848;2022-07-10T11:08:00;271.67;;;20.83;;
23995;SDS011;12207;50.076;8.848;2022-07-10T11:12:58;226.98;;;17.60;;
23995;SDS011;12207;50.076;8.848;2022-07-10T11:15:25;248.85;;;17.85;;
23995;SDS011;12207;50.076;8.848;2022-07-10T11:17:59;197.57;;;14.65;;
23995;SDS011;12207;50.076;8.848;2022-07-10T11:20:34;262.67;;;17.33;;
23995;SDS011;12207;50.076;8.848;2022-07-10T11:23:10;267.52;;;16.10;;
23995;SDS011;12207;50.076;8.848;2022-07-10T11:31:18;256.95;;;15.73;;
23995;SDS011;12207;50.076;8.848;2022-07-10T11:33:45;297.60;;;18.15;;
23995;SDS011;12207;50.076;8.848;2022-07-10T11:36:24;380.90;;;22.13;;
23995;SDS011;12207;50.076;8.848;2022-07-10T11:39:01;209.48;;;14.75;;
23995;SDS011;12207;50.076;8.848;2022-07-10T11:41:33;276.17;;;20.42;;
23995;SDS011;12207;50.076;8.848;2022-07-10T11:44:12;262.05;;;18.42;;
23995;SDS011;12207;50.076;8.848;2022-07-10T11:46:41;272.35;;;18.17;;
23995;SDS011;12207;50.076;8.848;2022-07-10T11:49:10;267.60;;;18.67;;
23995;SDS011;12207;50.076;8.848;2022-07-10T11:51:40;316.48;;;22.02;;
23995;SDS011;12207;50.076;8.848;2022-07-10T11:54:09;306.48;;;21.30;;
23995;SDS011;12207;50.076;8.848;2022-07-10T11:56:50;312.80;;;22.63;;
23995;SDS011;12207;50.076;8.848;2022-07-10T11:59:18;268.55;;;19.75;;
23995;SDS011;12207;50.076;8.848;2022-07-10T12:01:53;217.55;;;19.20;;
23995;SDS011;12207;50.076;8.848;2022-07-10T12:04:21;244.45;;;19.92;;
23995;SDS011;12207;50.076;8.848;2022-07-10T12:06:53;247.15;;;22.63;;
23995;SDS011;12207;50.076;8.848;2022-07-10T12:09:21;265.95;;;23.95;;
23995;SDS011;12207;50.076;8.848;2022-07-10T12:12:22;265.02;;;24.15;;
23995;SDS011;12207;50.076;8.848;2022-07-10T12:14:41;312.35;;;23.20;;
23995;SDS011;12207;50.076;8.848;2022-07-10T12:17:11;334.92;;;25.42;;
23995;SDS011;12207;50.076;8.848;2022-07-10T12:19:38;325.13;;;25.75;;
23995;SDS011;12207;50.076;8.848;2022-07-10T12:22:05;281.85;;;21.60;;
23995;SDS011;12207;50.076;8.848;2022-07-10T12:24:32;289.23;;;23.83;;
23995;SDS011;12207;50.076;8.848;2022-07-10T12:26:59;230.30;;;18.70;;
23995;SDS011;12207;50.076;8.848;2022-07-10T12:29:30;230.23;;;19.38;;
23995;SDS011;12207;50.076;8.848;2022-07-10T12:32:00;230.68;;;20.13;;
23995;SDS011;12207;50.076;8.848;2022-07-10T12:34:40;234.50;;;21.85;;
23995;SDS011;12207;50.076;8.848;2022-07-10T12:37:15;289.15;;;24.35;;
23995;SDS011;12207;50.076;8.848;2022-07-10T12:40:00;286.60;;;25.17;;
23995;SDS011;12207;50.076;8.848;2022-07-10T12:42:27;256.00;;;22.98;;
23995;SDS011;12207;50.076;8.848;2022-07-10T12:45:11;216.02;;;18.02;;
23995;SDS011;12207;50.076;8.848;2022-07-10T12:47:45;346.13;;;25.35;;
23995;SDS011;12207;50.076;8.848;2022-07-10T12:50:13;281.88;;;20.65;;
23995;SDS011;12207;50.076;8.848;2022-07-10T12:52:42;276.35;;;21.60;;
23995;SDS011;12207;50.076;8.848;2022-07-10T12:55:16;324.85;;;25.23;;
23995;SDS011;12207;50.076;8.848;2022-07-10T12:58:21;294.65;;;22.83;;
23995;SDS011;12207;50.076;8.848;2022-07-10T13:00:44;304.63;;;21.92;;
23995;SDS011;12207;50.076;8.848;2022-07-10T13:03:18;270.33;;;20.67;;
23995;SDS011;12207;50.076;8.848;2022-07-10T13:05:50;231.60;;;18.48;;
23995;SDS011;12207;50.076;8.848;2022-07-10T13:10:47;310.35;;;25.90;;
23995;SDS011;12207;50.076;8.848;2022-07-10T13:13:21;251.35;;;24.52;;
23995;SDS011;12207;50.076;8.848;2022-07-10T13:15:48;241.15;;;21.83;;
23995;SDS011;12207;50.076;8.848;2022-07-10T13:18:16;318.38;;;25.58;;
23995;SDS011;12207;50.076;8.848;2022-07-10T13:20:44;314.00;;;26.95;;
23995;SDS011;12207;50.076;8.848;2022-07-10T13:23:11;295.95;;;24.70;;
23995;SDS011;12207;50.076;8.848;2022-07-10T13:25:38;302.95;;;25.20;;
23995;SDS011;12207;50.076;8.848;2022-07-10T13:28:06;272.60;;;21.23;;
23995;SDS011;12207;50.076;8.848;2022-07-10T13:30:35;341.20;;;25.52;;
23995;SDS011;12207;50.076;8.848;2022-07-10T13:33:02;299.90;;;23.50;;
23995;SDS011;12207;50.076;8.848;2022-07-10T13:35:29;263.00;;;20.85;;
23995;SDS011;12207;50.076;8.848;2022-07-10T13:37:56;240.43;;;17.85;;
23995;SDS011;12207;50.076;8.848;2022-07-10T13:40:27;294.23;;;22.83;;
23995;SDS011;12207;50.076;8.848;2022-07-10T13:42:54;232.10;;;18.42;;
23995;SDS011;12207;50.076;8.848;2022-07-10T13:45:21;240.25;;;18.50;;
23995;SDS011;12207;50.076;8.848;2022-07-10T13:47:50;248.48;;;19.35;;
23995;SDS011;12207;50.076;8.848;2022-07-10T13:50:20;264.42;;;19.85;;
23995;SDS011;12207;50.076;8.848;2022-07-10T13:52:48;332.60;;;23.70;;
23995;SDS011;12207;50.076;8.848;2022-07-10T13:55:15;304.45;;;19.70;;
23995;SDS011;12207;50.076;8.848;2022-07-10T13:57:41;272.05;;;18.75;;
23995;SDS011;12207;50.076;8.848;2022-07-10T14:00:09;319.00;;;20.00;;
23995;SDS011;12207;50.076;8.848;2022-07-10T14:02:37;326.98;;;20.55;;
23995;SDS011;12207;50.076;8.848;2022-07-10T14:05:04;317.90;;;19.83;;
23995;SDS011;12207;50.076;8.848;2022-07-10T14:07:31;266.50;;;17.45;;
23995;SDS011;12207;50.076;8.848;2022-07-10T14:09:58;212.48;;;13.88;;
23995;SDS011;12207;50.076;8.848;2022-07-10T14:12:26;262.80;;;16.70;;
23995;SDS011;12207;50.076;8.848;2022-07-10T14:14:53;255.35;;;16.02;;
23995;SDS011;12207;50.076;8.848;2022-07-10T14:17:20;269.63;;;16.98;;
23995;SDS011;12207;50.076;8.848;2022-07-10T14:19:47;232.57;;;15.35;;
23995;SDS011;12207;50.076;8.848;2022-07-10T14:22:14;290.20;;;17.52;;
23995;SDS011;12207;50.076;8.848;2022-07-10T14:24:41;317.48;;;19.05;;
23995;SDS011;12207;50.076;8.848;2022-07-10T14:27:08;272.48;;;17.55;;
23995;SDS011;12207;50.076;8.848;2022-07-10T14:29:36;256.05;;;16.73;;
23995;SDS011;12207;50.076;8.848;2022-07-10T14:32:03;323.83;;;21.67;;
23995;SDS011;12207;50.076;8.848;2022-07-10T14:34:30;242.25;;;17.73;;
23995;SDS011;12207;50.076;8.848;2022-07-10T14:36:56;238.48;;;17.88;;
23995;SDS011;12207;50.076;8.848;2022-07-10T14:39:24;226.63;;;17.42;;
23995;SDS011;12207;50.076;8.848;2022-07-10T14:41:50;261.85;;;18.80;;
23995;SDS011;12207;50.076;8.848;2022-07-10T14:44:17;240.13;;;19.80;;
23995;SDS011;12207;50.076;8.848;2022-07-10T14:46:44;309.50;;;23.08;;
23995;SDS011;12207;50.076;8.848;2022-07-10T14:49:11;302.05;;;22.17;;
23995;SDS011;12207;50.076;8.848;2022-07-10T14:51:37;301.42;;;21.48;;
23995;SDS011;12207;50.076;8.848;2022-07-10T14:54:04;289.70;;;22.60;;
23995;SDS011;12207;50.076;8.848;2022-07-10T14:56:31;295.17;;;21.83;;
23995;SDS011;12207;50.076;8.848;2022-07-10T14:58:58;253.13;;;19.73;;